Time;durP1;ratioP1;P1;durP2;ratioP2;P2;SDS_P1;SDS_P2;PMS_P1;PMS_P2;Temp;Humidity;BMP_temperature;BMP_pressure;BME280_temperature;BME280_humidity;BME280_pressure;Samples;Min_cycle;Max_cycle;Signal;HPM_P1;HPM_P2
2022/09/28 00:08:39;;;;;;;59.47;34.65;;;8.00;99.90;;;;;;21139218;28;20043;-49
2022/09/28 00:18:42;;;;;;;60.40;36.60;;;8.30;99.90;;;;;;21145835;28;20024;-52
2022/09/28 00:28:46;;;;;;;61.45;36.15;;;8.50;99.90;;;;;;21155446;28;20117;-48
2022/09/28 00:38:49;;;;;;;55.28;33.25;;;8.30;99.90;;;;;;21137078;28;20055;-49
2022/09/28 00:49:02;;;;;;;72.10;36.90;;;7.80;99.90;;;;;;21119951;28;20036;-49
2022/09/28 00:59:06;;;;;;;54.53;31.25;;;7.50;99.90;;;;;;21152979;28;20073;-49
2022/09/28 01:09:11;;;;;;;52.15;27.95;;;7.30;99.90;;;;;;21151945;28;20035;-48
2022/09/28 01:19:41;;;;;;;41.00;23.65;;;7.00;99.90;;;;;;21134200;28;20036;-49
2022/09/28 01:29:54;;;;;;;50.92;28.42;;;6.80;99.90;;;;;;21150225;28;20065;-52
2022/09/28 01:40:00;;;;;;;34.58;21.10;;;6.90;99.90;;;;;;21149080;28;20081;-48
2022/09/28 01:50:11;;;;;;;28.65;17.00;;;6.80;99.90;;;;;;21147729;28;20092;-50
2022/09/28 02:00:19;;;;;;;37.92;22.00;;;7.00;99.90;;;;;;21131123;28;20035;-49
2022/09/28 02:10:54;;;;;;;33.07;19.67;;;7.40;99.90;;;;;;21130442;28;20061;-48
2022/09/28 02:21:32;;;;;;;38.35;24.25;;;7.80;99.90;;;;;;21145802;28;20035;-51
2022/09/28 02:31:35;;;;;;;37.08;23.77;;;8.00;99.90;;;;;;21129467;28;20120;-52
2022/09/28 02:42:22;;;;;;;31.50;21.10;;;8.20;99.90;;;;;;21126844;28;20043;-48
2022/09/28 02:52:46;;;;;;;28.33;19.48;;;8.10;99.90;;;;;;20886734;28;20509;-52
2022/09/28 03:03:07;;;;;;;27.00;18.95;;;8.00;99.90;;;;;;20951419;28;20040;-50
2022/09/28 03:13:13;;;;;;;33.80;20.38;;;8.00;99.90;;;;;;20984466;28;20505;-50
2022/09/28 03:23:16;;;;;;;30.38;20.92;;;8.30;99.90;;;;;;21013065;28;20040;-52
2022/09/28 03:33:19;;;;;;;32.17;21.02;;;8.40;99.90;;;;;;21125022;28;20043;-52
2022/09/28 03:43:23;;;;;;;30.50;19.48;;;8.40;99.90;;;;;;21141378;28;20484;-59
2022/09/28 03:53:28;;;;;;;30.17;19.88;;;8.50;99.90;;;;;;21133353;28;20090;-53
2022/09/28 04:03:32;;;;;;;31.08;19.40;;;8.60;99.90;;;;;;21157893;28;20408;-58
2022/09/28 04:13:36;;;;;;;31.75;20.67;;;8.50;99.90;;;;;;21158123;28;20077;-51
2022/09/28 04:23:44;;;;;;;24.80;16.83;;;8.40;99.90;;;;;;21139420;28;20027;-51
2022/09/28 04:33:47;;;;;;;23.38;15.23;;;8.40;99.90;;;;;;21154625;28;20432;-49
2022/09/28 04:43:51;;;;;;;21.52;15.55;;;8.60;99.90;;;;;;21172928;28;20035;-49
2022/09/28 04:53:56;;;;;;;22.08;14.02;;;8.60;99.90;;;;;;21153928;28;20084;-52
2022/09/28 05:03:58;;;;;;;16.92;12.80;;;8.60;99.90;;;;;;21152054;28;20039;-49
2022/09/28 05:14:33;;;;;;;20.38;13.93;;;8.60;99.90;;;;;;20811398;28;20107;-51
2022/09/28 05:24:36;;;;;;;20.08;14.02;;;8.60;99.90;;;;;;20809822;28;20216;-50
2022/09/28 05:34:39;;;;;;;16.40;12.25;;;8.70;99.90;;;;;;20806571;28;20038;-49
2022/09/28 05:44:43;;;;;;;20.05;14.02;;;8.70;99.90;;;;;;20858628;28;20051;-51
2022/09/28 05:54:46;;;;;;;20.00;13.40;;;8.70;99.90;;;;;;21064474;28;20081;-48
2022/09/28 06:04:50;;;;;;;15.70;11.35;;;8.80;99.90;;;;;;21064082;28;20074;-48
2022/09/28 06:14:57;;;;;;;20.80;13.32;;;8.90;99.90;;;;;;21062415;28;20090;-51
2022/09/28 06:25:00;;;;;;;15.02;10.88;;;9.00;99.90;;;;;;21045651;28;20036;-58
2022/09/28 06:35:03;;;;;;;16.02;10.70;;;9.00;99.90;;;;;;21061340;28;20048;-52
2022/09/28 06:45:26;;;;;;;18.92;11.38;;;9.00;99.90;;;;;;21080577;28;20032;-51
2022/09/28 06:56:01;;;;;;;13.90;10.00;;;9.00;99.90;;;;;;21060220;28;20082;-52
2022/09/28 07:06:05;;;;;;;13.68;10.63;;;9.00;99.90;;;;;;21042756;28;20028;-48
2022/09/28 07:16:13;;;;;;;13.10;9.70;;;9.10;99.90;;;;;;21058885;28;20086;-48
2022/09/28 07:26:18;;;;;;;14.52;10.38;;;9.20;99.90;;;;;;21041274;28;20036;-50
2022/09/28 07:36:38;;;;;;;13.55;9.45;;;9.50;99.90;;;;;;21127769;27;20081;-50
2022/09/28 07:46:44;;;;;;;12.52;8.93;;;9.70;99.90;;;;;;21162407;28;20055;-48
2022/09/28 07:56:56;;;;;;;11.40;8.38;;;10.10;99.90;;;;;;21124390;28;20058;-50
2022/09/28 08:07:18;;;;;;;10.82;7.85;;;10.50;99.90;;;;;;21182364;28;20060;-48
2022/09/28 08:17:24;;;;;;;11.43;9.02;;;10.80;99.90;;;;;;21208349;28;20031;-50
2022/09/28 08:27:31;;;;;;;10.43;8.30;;;10.90;99.90;;;;;;21225303;28;20035;-52
2022/09/28 08:37:33;;;;;;;10.10;7.80;;;10.70;99.90;;;;;;21210509;27;20364;-49
2022/09/28 08:48:42;;;;;;;11.25;8.55;;;10.70;99.90;;;;;;21185881;27;20455;-50
2022/09/28 08:59:15;;;;;;;9.30;7.18;;;11.30;99.90;;;;;;20895483;28;20040;-49
2022/09/28 09:09:50;;;;;;;11.02;8.77;;;11.50;99.90;;;;;;20911131;28;20494;-52
2022/09/28 09:20:14;;;;;;;14.48;8.52;;;11.70;99.90;;;;;;20877243;28;20037;-59
2022/09/28 09:30:25;;;;;;;10.30;7.43;;;11.80;99.90;;;;;;21124010;27;20095;-48
2022/09/28 09:40:49;;;;;;;10.95;7.20;;;12.50;99.90;;;;;;21235173;27;20400;-52
2022/09/28 09:51:19;;;;;;;7.40;5.90;;;13.70;99.90;;;;;;21129363;27;20513;-51
2022/09/28 10:01:32;;;;;;;8.98;6.25;;;15.30;99.90;;;;;;21234153;27;20088;-50
2022/09/28 10:11:57;;;;;;;8.48;6.80;;;16.40;99.90;;;;;;21224926;27;20096;-50
2022/09/28 10:22:04;;;;;;;9.10;6.57;;;17.10;99.90;;;;;;21192442;27;20032;-49
2022/09/28 10:32:25;;;;;;;8.98;6.15;;;18.40;99.90;;;;;;21146381;28;20093;-50
2022/09/28 10:42:34;;;;;;;11.55;6.40;;;18.00;99.90;;;;;;21128651;28;20446;-50
2022/09/28 10:52:43;;;;;;;12.73;7.85;;;16.50;99.90;;;;;;21188550;27;20035;-54
2022/09/28 11:02:56;;;;;;;8.25;6.25;;;15.00;99.90;;;;;;21211059;27;20039;-50
2022/09/28 11:12:59;;;;;;;8.02;6.03;;;15.10;99.90;;;;;;21211507;27;20035;-49
2022/09/28 11:23:25;;;;;;;8.50;5.90;;;16.40;99.90;;;;;;21227501;27;20035;-50
2022/09/28 11:33:46;;;;;;;9.35;5.97;;;17.40;99.90;;;;;;21201372;27;20111;-60
2022/09/28 11:44:20;;;;;;;10.43;5.70;;;16.70;99.90;;;;;;21175325;27;20500;-60
2022/09/28 11:54:55;;;;;;;8.15;5.45;;;16.00;99.90;;;;;;21134003;28;20028;-59
2022/09/28 12:05:15;;;;;;;8.45;5.65;;;15.40;99.90;;;;;;21119289;28;20031;-59
2022/09/28 12:15:39;;;;;;;10.65;6.38;;;14.80;99.90;;;;;;21234493;27;20031;-47
2022/09/28 12:25:50;;;;;;;8.35;5.35;;;14.20;99.90;;;;;;21241606;27;20057;-59
2022/09/28 12:36:06;;;;;;;8.45;5.32;;;15.10;99.90;;;;;;21240221;27;20043;-59
2022/09/28 12:46:36;;;;;;;8.32;4.90;;;15.20;99.90;;;;;;21194831;27;20077;-59
2022/09/28 12:56:52;;;;;;;10.77;5.57;;;14.80;99.90;;;;;;21154168;28;20088;-59
2022/09/28 13:07:05;;;;;;;7.22;4.72;;;14.00;99.90;;;;;;21154252;27;20097;-56
2022/09/28 13:17:41;;;;;;;11.93;4.45;;;13.80;99.90;;;;;;21136229;28;20032;-59
2022/09/28 13:28:05;;;;;;;6.40;4.20;;;14.00;99.90;;;;;;21151285;28;20035;-59
2022/09/28 13:38:17;;;;;;;8.80;5.03;;;13.60;99.90;;;;;;21199423;27;20073;-50
2022/09/28 13:48:26;;;;;;;7.22;4.80;;;13.30;99.90;;;;;;21154957;27;20488;-58
2022/09/28 13:58:32;;;;;;;6.93;4.80;;;13.00;99.90;;;;;;21149596;28;20089;-58
2022/09/28 14:08:44;;;;;;;7.55;5.03;;;12.90;99.90;;;;;;21148425;28;20084;-58
2022/09/28 14:19:01;;;;;;;6.95;4.38;;;13.00;99.90;;;;;;21136057;27;20444;-47
2022/09/28 14:29:28;;;;;;;6.55;4.03;;;12.90;99.90;;;;;;21140870;28;20069;-59
2022/09/28 14:50:17;;;;;;;9.02;4.00;;;12.30;99.90;;;;;;21153446;28;20053;-51
2022/09/28 15:00:24;;;;;;;8.80;3.63;;;12.10;99.90;;;;;;21144612;28;20469;-51
2022/09/28 15:10:35;;;;;;;5.65;3.63;;;11.80;99.90;;;;;;21143562;28;20043;-59
2022/09/28 15:20:44;;;;;;;6.93;3.65;;;11.50;99.90;;;;;;21142811;28;20057;-48
2022/09/28 15:30:47;;;;;;;7.47;4.80;;;11.30;99.90;;;;;;21142419;28;20031;-50
2022/09/28 15:40:50;;;;;;;8.75;4.57;;;11.20;99.90;;;;;;21072933;28;20609;-50
2022/09/28 15:51:09;;;;;;;8.68;4.47;;;11.20;99.90;;;;;;21056935;28;20036;-48
2022/09/28 16:01:34;;;;;;;10.43;4.30;;;11.00;99.90;;;;;;21057312;28;20396;-58
2022/09/28 16:11:40;;;;;;;6.65;3.30;;;10.80;99.90;;;;;;21056484;28;20070;-49
2022/09/28 16:21:45;;;;;;;8.45;2.95;;;10.50;99.90;;;;;;21055998;28;20036;-51
2022/09/28 16:31:51;;;;;;;7.40;2.80;;;10.50;99.90;;;;;;21056454;28;20032;-58
2022/09/28 16:42:01;;;;;;;8.32;2.75;;;10.30;99.90;;;;;;21195134;28;20047;-53
2022/09/28 16:52:08;;;;;;;;;;;10.00;99.90;;;;;;21139357;28;20031;-58
2022/09/28 17:02:17;;;;;;;8.07;3.20;;;10.00;99.90;;;;;;21141372;28;19912;-51
2022/09/28 17:12:23;;;;;;;5.78;2.78;;;9.70;99.90;;;;;;21113555;28;20370;-48
2022/09/28 17:22:26;;;;;;;11.38;3.50;;;9.60;99.90;;;;;;21108893;28;20113;-58
2022/09/28 17:32:28;;;;;;;11.38;3.92;;;9.70;99.90;;;;;;21067752;28;20418;-56
2022/09/28 17:42:31;;;;;;;8.98;2.97;;;9.60;99.90;;;;;;21064796;28;20035;-51
2022/09/28 17:52:34;;;;;;;7.28;2.90;;;9.60;99.90;;;;;;21105998;28;20032;-50
2022/09/28 18:02:36;;;;;;;11.90;3.90;;;10.00;99.90;;;;;;21064724;28;20032;-50
2022/09/28 18:12:41;;;;;;;8.68;3.10;;;10.20;99.90;;;;;;21064203;28;20474;-50
2022/09/28 18:22:44;;;;;;;10.30;3.60;;;10.20;99.90;;;;;;21062972;28;20094;-48
2022/09/28 18:32:47;;;;;;;11.52;3.00;;;10.10;99.90;;;;;;21062123;28;20050;-48
2022/09/28 18:42:50;;;;;;;7.72;3.03;;;10.10;99.90;;;;;;21061201;28;20100;-58
2022/09/28 18:52:52;;;;;;;9.40;3.03;;;10.00;99.90;;;;;;21098528;28;20032;-48
2022/09/28 19:02:55;;;;;;;6.95;2.75;;;10.00;99.90;;;;;;21060873;28;20493;-48
2022/09/28 19:12:58;;;;;;;11.85;3.33;;;9.90;99.90;;;;;;21059863;28;20487;-51
2022/09/28 19:23:02;;;;;;;10.35;3.20;;;9.90;99.90;;;;;;21058113;28;20385;-49
2022/09/28 19:33:05;;;;;;;6.55;3.00;;;9.80;99.90;;;;;;21058344;28;20048;-49
2022/09/28 19:43:08;;;;;;;7.00;2.95;;;9.80;99.90;;;;;;21057818;28;20032;-49
2022/09/28 19:53:10;;;;;;;8.13;2.50;;;9.80;99.90;;;;;;21057420;28;20032;-47
2022/09/28 20:03:13;;;;;;;8.35;2.40;;;9.70;99.90;;;;;;21057023;28;20040;-49
2022/09/28 20:13:16;;;;;;;7.60;1.58;;;9.70;99.90;;;;;;21056767;28;20105;-50
2022/09/28 20:23:20;;;;;;;4.75;1.13;;;10.10;99.90;;;;;;21056275;28;20089;-50
2022/09/28 20:33:22;;;;;;;9.40;1.65;;;10.20;99.90;;;;;;21064193;28;20097;-48
2022/09/28 20:43:26;;;;;;;7.85;1.90;;;10.20;99.90;;;;;;21172478;28;20048;-47
2022/09/28 20:53:32;;;;;;;5.32;1.88;;;10.00;99.90;;;;;;21154148;28;20073;-48
2022/09/28 21:03:36;;;;;;;8.70;2.20;;;9.80;99.90;;;;;;21154779;28;20081;-59
2022/09/28 21:13:41;;;;;;;6.78;1.95;;;9.50;99.90;;;;;;21153276;28;20039;-47
2022/09/28 21:23:45;;;;;;;5.45;1.75;;;9.70;99.90;;;;;;21151963;28;20415;-52
2022/09/28 21:33:48;;;;;;;12.27;2.15;;;9.90;99.90;;;;;;21151280;28;20044;-49
2022/09/28 21:43:51;;;;;;;5.93;1.65;;;10.00;99.90;;;;;;21150434;28;20031;-53
2022/09/28 21:53:53;;;;;;;4.75;1.02;;;10.00;99.90;;;;;;21149893;28;20420;-49
2022/09/28 22:03:56;;;;;;;11.73;3.13;;;9.70;99.90;;;;;;21148744;28;20043;-49
2022/09/28 22:13:59;;;;;;;7.63;2.40;;;9.20;99.90;;;;;;21148856;28;20096;-51
2022/09/28 22:24:06;;;;;;;0.70;0.30;;;8.90;99.90;;;;;;21147383;28;20035;-51
2022/09/28 22:34:09;;;;;;;1.60;0.30;;;9.30;99.90;;;;;;21146199;28;20047;-59
2022/09/28 22:44:11;;;;;;;0.70;0.20;;;9.60;99.90;;;;;;21145758;28;20036;-53
2022/09/28 22:54:15;;;;;;;7.55;1.98;;;9.50;99.90;;;;;;21144553;28;20031;-51
2022/09/28 23:04:17;;;;;;;5.63;2.63;;;9.30;99.90;;;;;;21143577;28;20028;-52
2022/09/28 23:14:21;;;;;;;13.23;4.10;;;9.20;99.90;;;;;;21143752;28;20096;-61
2022/09/28 23:24:24;;;;;;;3.42;1.52;;;9.10;99.90;;;;;;21142879;28;20484;-53
2022/09/28 23:34:27;;;;;;;4.10;1.85;;;9.00;99.90;;;;;;21142338;28;20047;-52
2022/09/28 23:44:32;;;;;;;12.05;5.55;;;9.10;99.90;;;;;;21142027;28;20036;-51
2022/09/28 23:54:34;;;;;;;11.35;5.80;;;9.10;99.90;;;;;;21141510;28;20089;-51
